Meteo Giornale » Osservazioni meteo Stati Uniti (USA) » Lakehurst Naval Air Station

ore: 01:35 - Osservazioni Meteo Lakehurst Naval Air Station
Lat. 40° 2' N Lon. 74° 19' W Alt. 31 metri s.l.m.

coperto America/New_York

0 °C

Coperto

Temp. 24 Ore

0 °C

27 °C

Nord

0 Km/h

Dew point 0 °C

Umidità 100 %

Visibilità  10 Km

Il sole sorge alle ore 05:28

Il sole tramonta alle ore 20:31

Data e Ora Cielo e Fenomeni T °C DP °C Um. % Pres. hPa Vis. km Vento km/h
Oggi h: 01:35 coperto Coperto 0 0 100 1025 10 N 0
Oggi h: 00:00 poco_nuvoloso Poco Nuvoloso 0 0 83 1026 10 N 7.4
Ieri h: 23:00 nuvoloso Nuvoloso 18 13 72 1026 10 N 7.4
Ieri h: 22:00 sereno Sereno 20 13 64 1026 10 N 7.4
Ieri h: 21:00 sereno Sereno 19 12 63 1026 10 N 0
Ieri h: 20:00 sereno Sereno 22 13 56 1026 10 E 9.3
Ieri h: 19:00 sereno Sereno 23 11 46 1026 10 E 13
Ieri h: 18:00 sereno Sereno 24 11 43 1026 10 E 16.7
Ieri h: 17:00 sereno Sereno 24 9 38 1026 10 E 20.3
Ieri h: 16:00 sereno Sereno 23 11 46 1027 10 E/SE 16.7
Ieri h: 15:00 sereno Sereno 25 11 41 1028 10 SE 13
Ieri h: 14:00 sereno Sereno 27 13 42 1028 10 E/SE 20.3
Ieri h: 13:00 sereno Sereno 27 15 47 1028 10 E 20.3
Ieri h: 12:00 poco_nuvoloso Poco Nuvoloso 26 13 44 1028 10 E/SE 22.2
Ieri h: 11:00 sereno Sereno 25 15 53 1028 10 E 16.7
Ieri h: 10:00 sereno Sereno 25 15 53 1028 10 E/SE 13
Ieri h: 09:00 sereno Sereno 23 14 56 1028 10 N 0
Ieri h: 08:00 sereno Sereno 22 15 64 1028 10 N 0
Ieri h: 07:00 sereno Sereno 0 0 82 1028 10 N 0
Ieri h: 06:00 sereno Sereno 0 0 83 1027 10 N 0
Ieri h: 05:00 sereno Sereno 0 0 93 1027 10 N 0
Ieri h: 04:00 sereno Sereno 0 0 78 1026 10 O/NO 5.5
Ieri h: 03:00 sereno Sereno 0 0 76 1026 10 N 0